createdAt,value
2019-05-18T00:00:00.098Z,10.13
2019-05-18T00:05:00.107Z,10.13
2019-05-18T00:10:00.113Z,10.13
2019-05-18T00:15:00.107Z,10
2019-05-18T00:20:00.087Z,9.94
2019-05-18T00:25:00.119Z,9.75
2019-05-18T00:30:00.107Z,9.63
2019-05-18T00:35:00.169Z,9.56
2019-05-18T00:40:00.073Z,9.63
2019-05-18T00:45:00.111Z,9.75
2019-05-18T00:50:00.113Z,9.81
2019-05-18T00:55:00.123Z,9.63
2019-05-18T01:00:00.121Z,9.44
2019-05-18T01:05:00.120Z,9.25
2019-05-18T01:10:00.071Z,9.19
2019-05-18T01:15:00.121Z,9.13
2019-05-18T01:20:00.121Z,9.13
2019-05-18T01:25:00.115Z,9.13
2019-05-18T01:30:00.099Z,9.06
2019-05-18T01:35:00.108Z,9
2019-05-18T01:40:00.122Z,8.94
2019-05-18T01:45:00.097Z,9
2019-05-18T01:50:00.082Z,8.94
2019-05-18T01:55:00.110Z,9.06
2019-05-18T02:00:00.113Z,9.13
2019-05-18T02:05:00.134Z,9.25
2019-05-18T02:10:00.103Z,9.19
2019-05-18T02:15:00.118Z,9.19
2019-05-18T02:20:00.102Z,9.31
2019-05-18T02:25:00.104Z,9.25
2019-05-18T02:30:00.142Z,9.19
2019-05-18T02:35:00.098Z,9.25
2019-05-18T02:40:00.100Z,9.25
2019-05-18T02:45:00.099Z,9.19
2019-05-18T02:50:00.104Z,9.13
2019-05-18T02:55:00.139Z,9.06
2019-05-18T03:00:00.142Z,9
2019-05-18T03:05:00.108Z,8.88
2019-05-18T03:10:00.109Z,9
2019-05-18T03:15:00.094Z,9.06
2019-05-18T03:20:00.089Z,9.06
2019-05-18T03:25:00.129Z,9
2019-05-18T03:30:00.121Z,9
2019-05-18T03:35:00.102Z,9.25
2019-05-18T03:40:00.095Z,9.88
2019-05-18T03:45:00.101Z,10.5
2019-05-18T03:50:00.135Z,10.88
2019-05-18T03:55:00.115Z,11.38
2019-05-18T04:00:00.110Z,11.81
2019-05-18T04:05:00.132Z,11.81
2019-05-18T04:10:00.101Z,11.81
2019-05-18T04:15:00.101Z,13.31
2019-05-18T04:20:00.109Z,13.75
2019-05-18T04:25:00.091Z,14.25
2019-05-18T04:30:00.106Z,14.44
2019-05-18T04:35:00.108Z,15.13
2019-05-18T04:40:00.091Z,15.63
2019-05-18T04:45:00.062Z,15.69
2019-05-18T04:50:04.874Z,16.06
2019-05-18T04:55:00.122Z,16.88
2019-05-18T05:00:00.098Z,17.06
2019-05-18T05:05:00.126Z,16.31
2019-05-18T05:10:00.059Z,16.38
2019-05-18T05:15:00.126Z,16.63
2019-05-18T05:20:00.097Z,17.13
2019-05-18T05:25:00.121Z,17.38
2019-05-18T05:30:00.124Z,17.25
2019-05-18T05:35:00.099Z,17.69
2019-05-18T05:40:00.101Z,18.06
2019-05-18T05:45:00.096Z,18.38
2019-05-18T05:50:00.145Z,18.69
2019-05-18T05:55:00.115Z,18.88
2019-05-18T06:00:00.127Z,19.31
2019-05-18T06:05:00.107Z,19.38
2019-05-18T06:10:00.102Z,19.5
2019-05-18T06:15:00.106Z,20
2019-05-18T06:20:00.094Z,21
2019-05-18T06:25:00.107Z,22.56
2019-05-18T06:30:00.120Z,21.75
2019-05-18T06:35:00.096Z,21.88
2019-05-18T06:40:00.101Z,22.25
2019-05-18T06:45:00.120Z,22.25
2019-05-18T06:50:00.094Z,21.25
2019-05-18T06:55:00.106Z,21.5
2019-05-18T07:00:00.065Z,22.69
2019-05-18T07:05:00.108Z,21.94
2019-05-18T07:10:00.126Z,22.81
2019-05-18T07:15:00.582Z,23.25
2019-05-18T07:20:00.101Z,23.63
2019-05-18T07:25:00.117Z,22.5
2019-05-18T07:30:00.057Z,22.94
2019-05-18T07:35:00.103Z,21.75
2019-05-18T07:40:00.114Z,22.25
2019-05-18T07:45:00.189Z,22.19
2019-05-18T07:50:00.097Z,21.63
2019-05-18T07:55:00.109Z,20.5
2019-05-18T08:00:00.097Z,19.38
2019-05-18T08:05:00.057Z,17.88
2019-05-18T08:10:00.107Z,17.5
2019-05-18T08:15:00.059Z,18.25
2019-05-18T08:20:00.097Z,19
2019-05-18T08:25:00.110Z,18.5
2019-05-18T08:30:00.137Z,17.94
2019-05-18T08:35:00.111Z,17.25
2019-05-18T08:40:00.058Z,18.25
2019-05-18T08:45:00.108Z,17.81
2019-05-18T08:50:00.095Z,18.44
2019-05-18T08:55:00.097Z,19.06
2019-05-18T09:00:00.102Z,18.75
2019-05-18T09:05:00.066Z,18.56
2019-05-18T09:10:00.119Z,18.19
2019-05-18T09:15:00.061Z,19.31
2019-05-18T09:20:00.098Z,19.13
2019-05-18T09:25:00.133Z,19.56
2019-05-18T09:30:00.111Z,19.25
2019-05-18T09:35:00.123Z,19.19
2019-05-18T09:40:00.100Z,19.94
2019-05-18T09:45:00.093Z,19.31
2019-05-18T09:50:00.058Z,19.13
2019-05-18T09:55:00.122Z,19.69
2019-05-18T10:00:00.060Z,19.5
2019-05-18T10:05:00.105Z,19.19
2019-05-18T10:10:00.096Z,19.38
2019-05-18T10:15:00.096Z,19.94
2019-05-18T10:20:00.111Z,19.69
2019-05-18T10:25:00.107Z,20.56
2019-05-18T10:30:00.112Z,20.94
2019-05-18T10:35:00.117Z,21.56
2019-05-18T10:40:00.102Z,21.75
2019-05-18T10:45:00.110Z,21.06
2019-05-18T10:50:00.116Z,20.94
2019-05-18T10:55:00.221Z,20.94
2019-05-18T11:00:00.103Z,21.94
2019-05-18T11:05:00.118Z,22.44
2019-05-18T11:10:00.102Z,22.44
2019-05-18T11:15:00.097Z,22.94
2019-05-18T11:20:00.100Z,22.5
2019-05-18T11:25:00.107Z,22.38
2019-05-18T11:30:00.105Z,21.75
2019-05-18T11:35:00.094Z,21.69
2019-05-18T11:40:00.092Z,22.31
2019-05-18T11:45:00.107Z,22.31
2019-05-18T11:50:00.103Z,22.06
2019-05-18T11:55:00.094Z,20.56
2019-05-18T12:00:00.058Z,20.13
2019-05-18T12:05:00.108Z,20.56
2019-05-18T12:10:00.100Z,21.19
2019-05-18T12:15:00.100Z,20.88
2019-05-18T12:20:00.105Z,20.94
2019-05-18T12:25:00.111Z,21.06
2019-05-18T12:30:00.065Z,21.44
2019-05-18T12:35:00.120Z,21.69
2019-05-18T12:40:00.103Z,21.94
2019-05-18T12:45:00.098Z,21.94
2019-05-18T12:50:00.125Z,21.31
2019-05-18T12:55:00.097Z,20.81
2019-05-18T13:00:00.121Z,20.88
2019-05-18T13:05:00.097Z,21.63
2019-05-18T13:10:00.110Z,21.5
2019-05-18T13:15:00.095Z,21.06
2019-05-18T13:20:00.108Z,20.94
2019-05-18T13:25:00.111Z,20.88
2019-05-18T13:30:00.151Z,21.06
2019-05-18T13:35:00.096Z,21.94
2019-05-18T13:40:00.103Z,21.69
2019-05-18T13:45:00.111Z,21.81
2019-05-18T13:50:00.083Z,22.25
2019-05-18T13:55:04.241Z,22.25
2019-05-18T14:00:00.111Z,22.19
2019-05-18T14:05:00.074Z,22.31
2019-05-18T14:10:00.098Z,22.31
2019-05-18T14:15:00.145Z,22.5
2019-05-18T14:20:00.105Z,22.44
2019-05-18T14:25:00.092Z,22.13
2019-05-18T14:30:00.109Z,22
2019-05-18T14:35:00.123Z,21.81
2019-05-18T14:40:00.076Z,21.38
2019-05-18T14:45:00.097Z,21.5
2019-05-18T14:50:00.102Z,21.5
2019-05-18T14:55:00.106Z,21.44
2019-05-18T15:00:02.317Z,21.5
2019-05-18T15:05:00.099Z,21.44
2019-05-18T15:10:00.099Z,21.38
2019-05-18T15:15:00.062Z,21.13
2019-05-18T15:20:00.112Z,21.13
2019-05-18T15:25:00.114Z,21.19
2019-05-18T15:30:00.113Z,21.25
2019-05-18T15:35:00.079Z,21.5
2019-05-18T15:40:00.069Z,21.44
2019-05-18T15:45:00.105Z,20.81
2019-05-18T15:50:00.122Z,20.69
2019-05-18T15:55:00.094Z,20.81
2019-05-18T16:00:00.152Z,21
2019-05-18T16:05:00.108Z,21.19
2019-05-18T16:10:00.120Z,21.13
2019-05-18T16:15:00.118Z,21.13
2019-05-18T16:20:00.093Z,21.06
2019-05-18T16:25:00.119Z,21.13
2019-05-18T16:30:00.115Z,21
2019-05-18T16:35:00.116Z,21.06
2019-05-18T16:40:00.110Z,20.94
2019-05-18T16:45:00.117Z,20.88
2019-05-18T16:50:00.112Z,20.69
2019-05-18T16:55:00.065Z,20.56
2019-05-18T17:00:00.091Z,20.56
2019-05-18T17:05:00.123Z,20.5
2019-05-18T17:10:00.090Z,20.44
2019-05-18T17:15:00.097Z,20.44
2019-05-18T17:20:00.129Z,20.38
2019-05-18T17:25:00.113Z,20.19
2019-05-18T17:30:00.103Z,20.13
2019-05-18T17:35:00.096Z,20
2019-05-18T17:40:00.120Z,19.94
2019-05-18T17:45:00.107Z,19.88
2019-05-18T17:50:00.134Z,19.81
2019-05-18T17:55:00.100Z,19.63
2019-05-18T18:00:00.094Z,19.5
2019-05-18T18:05:00.102Z,19.38
2019-05-18T18:10:00.147Z,19.25
2019-05-18T18:15:00.095Z,19.13
2019-05-18T18:20:00.100Z,19
2019-05-18T18:25:00.093Z,18.88
2019-05-18T18:30:00.100Z,18.81
2019-05-18T18:35:00.059Z,18.69
2019-05-18T18:40:00.127Z,18.56
2019-05-18T18:45:00.100Z,18.38
2019-05-18T18:50:00.109Z,18.25
2019-05-18T18:55:00.110Z,18
2019-05-18T19:00:00.104Z,17.88
2019-05-18T19:05:00.113Z,17.69
2019-05-18T19:10:00.090Z,17.56
2019-05-18T19:15:00.114Z,17.44
2019-05-18T19:20:00.095Z,17.31
2019-05-18T19:25:00.121Z,17.19
2019-05-18T19:30:00.117Z,17
2019-05-18T19:35:00.128Z,16.88
2019-05-18T19:40:00.127Z,16.81
2019-05-18T19:45:00.129Z,16.69
2019-05-18T19:50:00.113Z,16.63
2019-05-18T19:55:00.105Z,16.44
2019-05-18T20:00:00.060Z,16.31
2019-05-18T20:05:07.047Z,16.13
2019-05-18T20:10:00.092Z,16
2019-05-18T20:15:00.242Z,15.94
2019-05-18T20:20:00.123Z,15.94
2019-05-18T20:25:00.120Z,15.81
2019-05-18T20:30:00.115Z,15.69
2019-05-18T20:35:00.129Z,15.44
2019-05-18T20:40:00.125Z,15.31
2019-05-18T20:45:00.114Z,15.13
2019-05-18T20:50:00.096Z,15.06
2019-05-18T20:55:00.099Z,15.06
2019-05-18T21:00:00.090Z,15.13
2019-05-18T21:05:00.103Z,15.13
2019-05-18T21:10:00.104Z,15.13
2019-05-18T21:15:00.101Z,15.06
2019-05-18T21:20:00.216Z,15
2019-05-18T21:25:00.153Z,14.81
2019-05-18T21:30:00.056Z,14.75
2019-05-18T21:35:00.107Z,14.63
2019-05-18T21:40:00.119Z,14.56
2019-05-18T21:45:00.103Z,14.44
2019-05-18T21:50:00.119Z,14.38
2019-05-18T21:55:00.095Z,14.31
2019-05-18T22:00:00.118Z,14.38
2019-05-18T22:05:00.119Z,14.31
2019-05-18T22:10:00.107Z,14.19
2019-05-18T22:15:00.120Z,14.13
2019-05-18T22:20:00.067Z,13.94
2019-05-18T22:25:00.219Z,13.81
2019-05-18T22:30:00.261Z,13.88
2019-05-18T22:35:00.178Z,13.75
2019-05-18T22:40:01.234Z,13.69
2019-05-18T22:45:00.192Z,13.69
2019-05-18T22:50:00.089Z,13.81
2019-05-18T22:55:00.161Z,13.69
2019-05-18T23:00:00.200Z,13.56
2019-05-18T23:05:00.239Z,13.5
2019-05-18T23:10:00.174Z,13.44
2019-05-18T23:15:00.102Z,13.31
2019-05-18T23:20:00.201Z,13.31
2019-05-18T23:25:00.173Z,13.31
2019-05-18T23:30:00.171Z,13.38
2019-05-18T23:35:00.186Z,13.5
2019-05-18T23:40:00.221Z,13.5
2019-05-18T23:45:00.221Z,13.5
2019-05-18T23:50:00.184Z,13.5
2019-05-18T23:55:00.201Z,13.38
